Terminal Aerodrome Forecast
Issued by NWS Hastings, NE

Current Version | Previous Version | Text Only | Print | Product List | Glossary On
Versions: 1 2 3 4 5 6 7 8 9 10 11 12 13 14 15
000
FTUS45 KGID 080103 AAA
TAFEAR
TAF AMD
KEAR 080103Z 0801/0824 08007KT P6SM FEW035 SCT250
     FM080300 12005KT P6SM SCT250
     FM080700 VRB05KT P6SM SCT250
     FM081500 10006KT P6SM BKN150
      AMD LTD TO CLD VIS AND WIND=

USA.gov is the U.S. government's official web portal to all federal, state and local government web resources and services.